Airfield :
LOGIN :

Register | Disclaimer

   EN    FR    IT 

 










Legend :    VFR   Marginal VFR   IFR   Intensive IFR   Very Intensive IFR
Visi :
Ceiling :
>= 8 km
>= 3000ft
5 to 8 km
1000 to 3000 ft
1500m to 5 km
500 to 1000 ft
800 to 1500m
200 to 500 ft
< 800m
< 200 ft
Symbols :   Thunderstorms  Fog  Heavy snow  Heavy precipitations  Wind > 20 kt
SIGMETs :     Misc.  Thunderstorms  Icing  Turbulence  Mountain Waves  Volcanic Ashes







- Airport Elevation : 16 ft
- IATA code : EAS


LESO - San Sebastian Fuenterrabia

CURRENT METAR :
  • 260000Z AUTO 25007KT 200V290 9999 SCT056 BKN066 13/07 Q1014

EXPIRED METARs :
  • 252330Z AUTO 22004KT 200V260 9999 -RA FEW050 BKN060 13/08 Q1014
  • 252300Z AUTO 22004KT 190V260 9999 FEW060 13/08 Q1013
  • 252230Z AUTO 22005KT 190V260 9999 FEW057 BKN067 13/07 Q1013
  • 252200Z AUTO 21005KT 170V280 9999 SCT057 SCT068 13/07 Q1013
  • 252130Z AUTO VRB08G19KT 9999 FEW060 13/07 Q1012
  • 252100Z AUTO 29017G27KT 240V340 9999 FEW050 BKN067 13/07 Q1012

TAF TAF LESO
Valid from the 26 at 00:00 until the 27 at 00:00 UTC


252300Z 2600/2624 23012KT 9999 SCT030 TX15/2615Z TN08/2624Z
PROB40
TEMPO 2602/2609 26018G32KT 3000 SHRA SCT020TCU
PROB30
TEMPO 2603/2607 TS SCT030CB
TEMPO 2603/2614 26015G30KT
BECMG 2606/2610 29010KT
No reported NOTAMs for that airfield.



MET'MAP, your aeronautical weather chart ! - Copyright ORBIFLY December 2007 - Disclaimer

ORBIFLY MET'MAP TEAM :

Programming & Development : Alexandra Zaïnal
Concept & Development : Baudouin d'Aumeries
Co-Development & Prog : Marc-Olivier Méhu
Technical & hardware support : Manuel Goepfert

Contact : metmap@orbifly.com




SOURCES & CREDITS :

   NOAA